Friedens, Pennsylvania
Current Conditions -  °F | °C
As of 11:54 PM on Saturday 22 Nov 2014 (Local Time) from KJST Reporting Station
Broken Clouds Broken Clouds  
Wind Chill: 43°   Ceiling: 9500
Heat Index: 48°   Visibility: 10mi
Dew Point: 28°   Wind: 12mph
Humidity: 46%   Direction: 200°SSW
Pressure: 30.1"   Gusts: NA
Location:  40.05°N, 79°W
Report Text: KJST 230454Z AUTO 20010KT 10SM BKN095 09/M02 A3010 RMK AO2 SLP205 T00891022 400891083
Loading
Personal Weather Stations






























Interactive Weather Map New forecast layout! Learn more

10-Day Weather Forecast

Advertisements
Track Severe Weather on mobile